Time;durP1;ratioP1;P1;durP2;ratioP2;P2;SDS_P1;SDS_P2;PMS_P1;PMS_P2;Temp;Humidity;BMP_temperature;BMP_pressure;BME280_temperature;BME280_humidity;BME280_pressure;Samples;Min_cycle;Max_cycle;Signal;HPM_P1;HPM_P2
2021/10/30 00:01:35;;;;;;;34.00;22.33;;;10.10;95.20;;;;;;5030710;28;20382;-80
2021/10/30 00:04:01;;;;;;;31.40;21.10;;;10.10;95.30;;;;;;5034453;28;20068;-80
2021/10/30 00:06:27;;;;;;;32.25;20.67;;;10.10;95.40;;;;;;5050622;28;20386;-79
2021/10/30 00:08:53;;;;;;;32.03;20.67;;;10.00;95.40;;;;;;5049971;28;20473;-80
2021/10/30 00:11:18;;;;;;;34.35;22.90;;;10.00;95.40;;;;;;5050049;28;20032;-80
2021/10/30 00:13:44;;;;;;;31.67;21.27;;;9.90;95.40;;;;;;5049719;28;20037;-80
2021/10/30 00:16:09;;;;;;;36.47;21.90;;;9.90;95.50;;;;;;5050419;28;20370;-80
2021/10/30 00:18:35;;;;;;;37.20;22.13;;;9.90;95.60;;;;;;5050291;28;20041;-80
2021/10/30 00:21:00;;;;;;;31.13;20.75;;;9.80;95.60;;;;;;5050052;28;20041;-80
2021/10/30 00:23:26;;;;;;;33.65;22.08;;;9.80;95.70;;;;;;5050344;28;20036;-81
2021/10/30 00:25:51;;;;;;;32.50;22.90;;;9.80;95.80;;;;;;5050191;28;20025;-80
2021/10/30 00:28:17;;;;;;;30.50;21.30;;;9.70;95.90;;;;;;5049448;28;20079;-81
2021/10/30 00:30:43;;;;;;;31.27;21.50;;;9.70;95.90;;;;;;5050332;28;20553;-81
2021/10/30 00:33:09;;;;;;;29.75;20.38;;;9.60;95.90;;;;;;5049847;28;20024;-80
2021/10/30 00:35:34;;;;;;;32.53;20.83;;;9.60;96.00;;;;;;5049155;28;20029;-79
2021/10/30 00:38:00;;;;;;;37.95;23.42;;;9.50;96.10;;;;;;5064867;28;20371;-80
2021/10/30 00:40:25;;;;;;;30.70;20.58;;;9.50;96.10;;;;;;5049891;28;20065;-80
2021/10/30 00:42:52;;;;;;;33.15;22.20;;;9.50;96.20;;;;;;5049573;28;20049;-80
2021/10/30 00:45:17;;;;;;;32.13;22.48;;;9.40;96.20;;;;;;5048628;28;20083;-79
2021/10/30 00:47:43;;;;;;;33.88;22.08;;;9.40;96.30;;;;;;5049434;28;20037;-80
2021/10/30 00:50:09;;;;;;;31.63;21.95;;;9.30;96.30;;;;;;5049655;28;20029;-80
2021/10/30 00:52:37;;;;;;;28.98;20.92;;;9.30;96.40;;;;;;5049828;28;20043;-80
2021/10/30 00:55:03;;;;;;;29.45;21.27;;;9.30;96.40;;;;;;5049949;28;20029;-80
2021/10/30 00:57:29;;;;;;;35.00;22.42;;;9.20;96.50;;;;;;5049693;28;20379;-81
2021/10/30 00:59:55;;;;;;;31.05;21.80;;;9.20;96.50;;;;;;5048550;28;20037;-80
2021/10/30 01:02:22;;;;;;;35.88;23.92;;;9.10;96.60;;;;;;5048642;28;20385;-80
2021/10/30 01:04:48;;;;;;;31.95;21.17;;;9.10;96.60;;;;;;5050523;28;20037;-80
2021/10/30 01:07:14;;;;;;;35.10;22.40;;;9.10;96.70;;;;;;5049370;28;20029;-80
2021/10/30 01:09:39;;;;;;;36.92;23.30;;;9.10;96.80;;;;;;5049399;28;20029;-80
2021/10/30 01:12:07;;;;;;;34.97;23.48;;;9.00;96.90;;;;;;5047769;28;20031;-81
2021/10/30 01:14:33;;;;;;;42.05;25.27;;;8.90;97.00;;;;;;5049967;28;20730;-79
2021/10/30 01:17:01;;;;;;;39.45;25.75;;;8.90;97.20;;;;;;5049587;28;20028;-80
2021/10/30 01:19:28;;;;;;;32.30;21.00;;;8.90;97.30;;;;;;5048501;28;20549;-80
2021/10/30 01:21:54;;;;;;;32.97;21.33;;;8.80;97.40;;;;;;5049012;28;20033;-80
2021/10/30 01:24:19;;;;;;;40.25;25.20;;;8.80;97.40;;;;;;5048759;28;20029;-80
2021/10/30 01:26:45;;;;;;;36.50;23.30;;;8.80;97.60;;;;;;5049480;28;20040;-80
2021/10/30 01:29:11;;;;;;;34.17;23.50;;;8.80;97.60;;;;;;5048154;28;20039;-80
2021/10/30 01:31:36;;;;;;;37.38;24.77;;;8.80;97.60;;;;;;5049036;28;20454;-80
2021/10/30 01:34:06;;;;;;;34.10;21.75;;;8.80;97.50;;;;;;5049304;28;20147;-80
2021/10/30 01:36:35;;;;;;;37.15;23.88;;;8.70;97.50;;;;;;5008308;28;20022;-80
2021/10/30 01:39:04;;;;;;;35.13;22.05;;;8.80;97.60;;;;;;5009195;28;20372;-80
2021/10/30 01:41:30;;;;;;;33.50;22.10;;;8.70;97.60;;;;;;5009225;28;20390;-80
2021/10/30 01:43:56;;;;;;;33.10;21.92;;;8.70;97.60;;;;;;5009609;28;20033;-80
2021/10/30 01:46:22;;;;;;;34.70;22.67;;;8.70;97.50;;;;;;5016398;28;20025;-79
2021/10/30 01:48:49;;;;;;;36.72;23.42;;;8.70;97.50;;;;;;5028945;28;20069;-80
2021/10/30 01:51:15;;;;;;;35.58;23.58;;;8.70;97.50;;;;;;5027358;28;20029;-80
2021/10/30 01:53:42;;;;;;;38.30;22.52;;;8.70;97.60;;;;;;5029671;28;20025;-81
2021/10/30 01:56:08;;;;;;;31.48;20.30;;;8.70;97.60;;;;;;5029232;28;20098;-80
2021/10/30 01:58:33;;;;;;;29.15;20.55;;;8.70;97.50;;;;;;5028141;28;20469;-81
2021/10/30 02:01:00;;;;;;;30.13;21.42;;;8.60;97.50;;;;;;5029276;28;20034;-80
2021/10/30 02:03:29;;;;;;;33.00;22.65;;;8.60;97.40;;;;;;5028888;28;20086;-80
2021/10/30 02:05:54;;;;;;;31.23;21.40;;;8.60;97.40;;;;;;5029338;28;20053;-80
2021/10/30 02:08:20;;;;;;;33.88;22.98;;;8.60;97.50;;;;;;5028211;28;20068;-80
2021/10/30 02:10:45;;;;;;;32.30;21.52;;;8.60;97.50;;;;;;5029277;28;20106;-82
2021/10/30 02:13:11;;;;;;;32.80;21.38;;;8.50;97.50;;;;;;5043892;28;20036;-81
2021/10/30 02:15:38;;;;;;;33.53;21.42;;;8.50;97.60;;;;;;5049388;28;20033;-81
2021/10/30 02:18:04;;;;;;;39.22;23.05;;;8.50;97.60;;;;;;5048597;28;20151;-81
2021/10/30 02:20:30;;;;;;;37.47;23.77;;;8.50;97.70;;;;;;5051702;28;20076;-80
2021/10/30 02:22:56;;;;;;;32.75;21.17;;;8.40;97.80;;;;;;5067495;28;20061;-82
2021/10/30 02:25:22;;;;;;;32.03;21.42;;;8.50;97.90;;;;;;5056599;28;20025;-81
2021/10/30 02:27:48;;;;;;;33.60;22.50;;;8.50;97.90;;;;;;5055660;28;20036;-81
2021/10/30 02:30:14;;;;;;;33.13;22.75;;;8.50;98.00;;;;;;5057805;28;20326;-79
2021/10/30 02:32:40;;;;;;;30.00;20.98;;;8.50;98.00;;;;;;5052484;28;20116;-82
2021/10/30 02:35:06;;;;;;;30.23;20.80;;;8.50;98.00;;;;;;5049425;28;20025;-79
2021/10/30 02:37:31;;;;;;;33.08;21.85;;;8.50;98.00;;;;;;5051857;28;20025;-79
2021/10/30 02:39:57;;;;;;;32.00;22.00;;;8.50;97.90;;;;;;5052490;28;20056;-80
2021/10/30 02:42:23;;;;;;;27.42;19.10;;;8.50;98.00;;;;;;5052139;28;20040;-80
2021/10/30 02:44:48;;;;;;;28.55;20.33;;;8.50;98.00;;;;;;5052333;28;20064;-80
2021/10/30 02:47:14;;;;;;;31.02;20.25;;;8.50;98.00;;;;;;5053146;28;20033;-79
2021/10/30 02:49:39;;;;;;;28.40;19.75;;;8.50;97.90;;;;;;5051972;28;20033;-80
2021/10/30 02:52:06;;;;;;;29.80;20.20;;;8.50;97.80;;;;;;5052667;28;20485;-79
2021/10/30 02:54:31;;;;;;;27.50;19.48;;;8.50;97.80;;;;;;5052428;28;20028;-78
2021/10/30 02:56:57;;;;;;;27.30;18.77;;;8.50;97.70;;;;;;5051001;28;20037;-80
2021/10/30 02:59:22;;;;;;;26.65;19.38;;;8.50;97.70;;;;;;5050886;28;20049;-79
2021/10/30 03:01:48;;;;;;;28.70;19.83;;;8.50;97.80;;;;;;5052063;28;20051;-79
2021/10/30 03:04:14;;;;;;;33.63;21.75;;;8.50;97.80;;;;;;5051575;28;20033;-80
2021/10/30 03:06:39;;;;;;;32.20;21.30;;;8.50;97.80;;;;;;5052185;28;20029;-80
2021/10/30 03:09:05;;;;;;;31.40;20.00;;;8.50;97.80;;;;;;5066807;28;20083;-80
2021/10/30 03:11:30;;;;;;;27.63;19.02;;;8.50;97.70;;;;;;5051723;28;20020;-79
2021/10/30 03:13:56;;;;;;;29.30;19.60;;;8.50;97.70;;;;;;5050719;28;20039;-80
2021/10/30 03:16:21;;;;;;;28.02;18.35;;;8.50;97.80;;;;;;5052320;28;20377;-79
2021/10/30 03:18:47;;;;;;;29.25;19.88;;;8.50;97.80;;;;;;5051175;28;20037;-79
2021/10/30 03:21:13;;;;;;;32.05;19.23;;;8.40;97.80;;;;;;5049943;28;20499;-79
2021/10/30 03:23:39;;;;;;;28.05;19.50;;;8.40;97.90;;;;;;5051713;28;20029;-79
2021/10/30 03:26:04;;;;;;;29.95;20.02;;;8.40;97.90;;;;;;5051760;28;20489;-79
2021/10/30 03:28:30;;;;;;;27.38;19.98;;;8.40;98.00;;;;;;5050720;28;20056;-79
2021/10/30 03:30:56;;;;;;;29.67;19.30;;;8.40;98.00;;;;;;5051328;28;20472;-79
2021/10/30 03:33:21;;;;;;;32.45;20.98;;;8.30;98.00;;;;;;5051124;28;20049;-79
2021/10/30 03:35:47;;;;;;;29.40;20.95;;;8.30;98.10;;;;;;5051873;28;20188;-79
2021/10/30 03:38:13;;;;;;;28.63;19.50;;;8.30;98.10;;;;;;5049996;28;20123;-79
2021/10/30 03:40:38;;;;;;;27.90;19.77;;;8.30;98.10;;;;;;5037455;28;20040;-79
2021/10/30 03:43:04;;;;;;;30.95;19.92;;;8.30;98.10;;;;;;5030845;28;20490;-79
2021/10/30 03:45:29;;;;;;;29.42;19.05;;;8.20;98.10;;;;;;5031305;28;20030;-79
2021/10/30 03:47:55;;;;;;;31.23;19.67;;;8.20;98.20;;;;;;5030469;28;20056;-79
2021/10/30 03:50:20;;;;;;;32.28;20.98;;;8.20;98.20;;;;;;5030641;28;20504;-80
2021/10/30 03:52:46;;;;;;;34.95;20.92;;;8.20;98.20;;;;;;5036625;28;20107;-79
2021/10/30 03:55:11;;;;;;;29.05;20.52;;;8.10;98.30;;;;;;5036408;28;20400;-79
2021/10/30 03:57:37;;;;;;;29.35;20.20;;;8.10;98.30;;;;;;5033729;28;20030;-80
2021/10/30 04:00:05;;;;;;;28.15;19.17;;;8.10;98.50;;;;;;5030829;28;20033;-80
2021/10/30 04:02:30;;;;;;;26.45;18.42;;;8.10;98.50;;;;;;5029140;28;20037;-81
2021/10/30 04:04:56;;;;;;;28.42;20.60;;;8.10;98.60;;;;;;5031370;28;20026;-80
2021/10/30 04:07:21;;;;;;;29.90;20.35;;;8.10;98.60;;;;;;5030827;28;20057;-80
2021/10/30 04:09:47;;;;;;;29.55;19.88;;;8.10;98.60;;;;;;5030772;28;20057;-80
2021/10/30 04:12:12;;;;;;;29.73;19.13;;;8.10;98.60;;;;;;5030473;28;20052;-80
2021/10/30 04:14:38;;;;;;;30.75;20.42;;;8.10;98.60;;;;;;5030603;28;20029;-79
2021/10/30 04:17:04;;;;;;;26.63;18.23;;;8.10;98.60;;;;;;5029384;28;20037;-80
2021/10/30 04:19:30;;;;;;;27.33;19.17;;;8.10;98.60;;;;;;5033062;28;20033;-80
2021/10/30 04:21:55;;;;;;;27.85;19.30;;;8.10;98.50;;;;;;5050307;28;20043;-80
2021/10/30 04:24:21;;;;;;;26.42;19.33;;;8.10;98.50;;;;;;5050080;28;20039;-81
2021/10/30 04:26:46;;;;;;;27.98;20.40;;;8.10;98.50;;;;;;5050578;28;20044;-80
2021/10/30 04:29:12;;;;;;;28.23;19.65;;;8.10;98.50;;;;;;5047795;28;20531;-79
2021/10/30 04:31:38;;;;;;;28.90;19.10;;;8.00;98.50;;;;;;5050321;28;20033;-80
2021/10/30 04:34:04;;;;;;;32.90;18.50;;;8.00;98.50;;;;;;5050388;28;20035;-80
2021/10/30 04:36:32;;;;;;;31.35;19.58;;;8.00;98.40;;;;;;5049810;28;20021;-80
2021/10/30 04:38:59;;;;;;;26.23;19.20;;;8.00;98.40;;;;;;5047908;28;20045;-79
2021/10/30 04:41:26;;;;;;;32.00;20.23;;;8.00;98.40;;;;;;5049653;28;20040;-79
2021/10/30 04:43:52;;;;;;;29.15;19.77;;;7.90;98.30;;;;;;5050684;28;20151;-80
2021/10/30 04:46:20;;;;;;;26.90;18.75;;;7.90;98.40;;;;;;5054728;28;20041;-80
2021/10/30 04:48:46;;;;;;;32.10;19.27;;;7.90;98.30;;;;;;5054553;28;20029;-80
2021/10/30 04:51:12;;;;;;;33.08;21.98;;;7.90;98.30;;;;;;5052182;28;20021;-81
2021/10/30 04:53:40;;;;;;;34.05;21.30;;;7.90;98.30;;;;;;5052570;28;20033;-80
2021/10/30 04:56:06;;;;;;;36.65;21.85;;;7.80;98.40;;;;;;5050711;28;20028;-81
2021/10/30 04:58:33;;;;;;;41.67;23.65;;;7.80;98.50;;;;;;5048531;28;20029;-80
2021/10/30 05:01:00;;;;;;;31.80;21.63;;;7.80;98.50;;;;;;5050094;28;20021;-81
2021/10/30 05:03:25;;;;;;;38.67;22.65;;;7.80;98.50;;;;;;5050161;28;20078;-79
2021/10/30 05:05:51;;;;;;;38.72;23.08;;;7.80;98.50;;;;;;5050091;28;20486;-80
2021/10/30 05:08:17;;;;;;;43.17;24.80;;;7.80;98.50;;;;;;5049591;28;20046;-80
2021/10/30 05:10:43;;;;;;;45.28;26.95;;;7.80;98.50;;;;;;5048229;28;20029;-79
2021/10/30 05:13:08;;;;;;;37.00;23.15;;;7.80;98.40;;;;;;5050693;28;20053;-80
2021/10/30 05:15:34;;;;;;;40.58;23.98;;;7.80;98.40;;;;;;5050118;28;20466;-81
2021/10/30 05:18:00;;;;;;;40.22;23.40;;;7.70;98.30;;;;;;5064943;28;20548;-81
2021/10/30 05:20:26;;;;;;;44.47;24.65;;;7.70;98.30;;;;;;5048096;28;20086;-81
2021/10/30 05:22:52;;;;;;;36.45;24.17;;;7.70;98.30;;;;;;5049570;28;20136;-80
2021/10/30 05:25:17;;;;;;;39.95;26.73;;;7.70;98.40;;;;;;5049422;28;20104;-82
2021/10/30 05:27:43;;;;;;;44.75;24.40;;;7.60;98.60;;;;;;5047595;28;20255;-81
2021/10/30 05:30:08;;;;;;;43.78;25.95;;;7.60;98.70;;;;;;5048708;28;20029;-81
2021/10/30 05:32:34;;;;;;;37.05;24.98;;;7.60;98.80;;;;;;5049184;28;20578;-81
2021/10/30 05:34:59;;;;;;;39.38;24.73;;;7.60;98.90;;;;;;5049506;28;20037;-81
2021/10/30 05:37:25;;;;;;;39.22;27.20;;;7.60;99.00;;;;;;5048045;28;20082;-81
2021/10/30 05:39:50;;;;;;;38.40;23.58;;;7.60;99.10;;;;;;5048861;28;20120;-82
2021/10/30 05:42:17;;;;;;;37.55;24.88;;;7.60;99.00;;;;;;5042991;28;20025;-81
2021/10/30 05:44:42;;;;;;;38.38;24.55;;;7.60;99.00;;;;;;5029342;28;20024;-81
2021/10/30 05:47:09;;;;;;;37.47;24.33;;;7.60;98.90;;;;;;5029514;28;20030;-81
2021/10/30 05:49:37;;;;;;;33.83;23.20;;;7.60;98.80;;;;;;5028644;28;20037;-82
2021/10/30 05:52:03;;;;;;;33.25;23.15;;;7.60;98.80;;;;;;5029176;28;20065;-81
2021/10/30 05:54:29;;;;;;;36.97;24.75;;;7.60;98.80;;;;;;5027440;28;20675;-80
2021/10/30 05:56:54;;;;;;;33.35;22.80;;;7.60;98.80;;;;;;5029211;28;20026;-81
2021/10/30 05:59:20;;;;;;;37.53;24.88;;;7.60;98.80;;;;;;5028217;28;20049;-81
2021/10/30 06:01:45;;;;;;;38.20;23.50;;;7.60;98.90;;;;;;5028741;28;20025;-82
2021/10/30 06:04:11;;;;;;;38.95;24.08;;;7.60;98.80;;;;;;5029502;28;20025;-81
2021/10/30 06:06:36;;;;;;;40.53;26.27;;;7.60;98.80;;;;;;5027532;28;20032;-81
2021/10/30 06:09:03;;;;;;;36.13;23.15;;;7.50;98.70;;;;;;5028627;28;20040;-80
2021/10/30 06:11:28;;;;;;;33.28;23.45;;;7.50;98.70;;;;;;5031593;28;20584;-81
2021/10/30 06:13:54;;;;;;;35.38;24.13;;;7.50;98.70;;;;;;5031913;28;20112;-82
2021/10/30 06:16:19;;;;;;;36.33;23.52;;;7.50;98.70;;;;;;5032552;28;20061;-80
2021/10/30 06:18:45;;;;;;;38.38;24.00;;;7.50;98.70;;;;;;5032429;28;20116;-81
2021/10/30 06:21:10;;;;;;;37.50;24.40;;;7.50;98.70;;;;;;5032322;28;20048;-81
2021/10/30 06:23:36;;;;;;;36.63;23.63;;;7.50;98.70;;;;;;5033043;28;20105;-80
2021/10/30 06:26:02;;;;;;;39.50;24.67;;;7.50;98.80;;;;;;5032588;28;20028;-82
2021/10/30 06:28:27;;;;;;;34.67;22.38;;;7.50;98.80;;;;;;5034023;28;20022;-81
2021/10/30 06:30:53;;;;;;;35.72;23.25;;;7.50;98.80;;;;;;5032320;28;20030;-81
2021/10/30 06:33:19;;;;;;;33.03;22.92;;;7.50;98.80;;;;;;5047906;28;20017;-81
2021/10/30 06:35:44;;;;;;;31.23;21.95;;;7.50;98.80;;;;;;5032420;28;20111;-81
2021/10/30 06:38:11;;;;;;;30.55;21.20;;;7.50;98.90;;;;;;5032580;28;20474;-81
2021/10/30 06:40:36;;;;;;;30.80;20.85;;;7.50;98.90;;;;;;5032744;28;20033;-82
2021/10/30 06:43:02;;;;;;;32.92;20.60;;;7.50;98.90;;;;;;5030995;28;20037;-81
2021/10/30 06:45:27;;;;;;;31.15;20.83;;;7.50;98.90;;;;;;5032425;28;20068;-81
2021/10/30 06:47:53;;;;;;;32.67;20.52;;;7.60;98.80;;;;;;5032017;28;20030;-80
2021/10/30 06:50:21;;;;;;;33.92;22.58;;;7.60;98.80;;;;;;5032289;28;20037;-81
2021/10/30 06:52:52;;;;;;;30.38;21.02;;;7.60;98.80;;;;;;5047685;28;20057;-81
2021/10/30 06:55:18;;;;;;;31.80;19.85;;;7.60;98.80;;;;;;5032455;28;20183;-80
2021/10/30 06:57:44;;;;;;;32.67;20.65;;;7.60;98.70;;;;;;5031713;28;20037;-79
2021/10/30 07:00:11;;;;;;;30.23;20.40;;;7.60;98.60;;;;;;5031669;28;20037;-80
2021/10/30 07:02:38;;;;;;;32.53;20.58;;;7.70;98.60;;;;;;5031428;28;20598;-79
2021/10/30 07:05:04;;;;;;;28.35;19.58;;;7.70;98.50;;;;;;5032549;28;20034;-80
2021/10/30 07:07:30;;;;;;;28.85;19.50;;;7.70;98.50;;;;;;5031396;28;20041;-79
2021/10/30 07:09:59;;;;;;;26.60;19.17;;;7.80;98.50;;;;;;5032072;28;20033;-80
2021/10/30 07:12:30;;;;;;;28.40;19.33;;;7.80;98.40;;;;;;5031556;28;20108;-80
2021/10/30 07:14:56;;;;;;;29.45;19.77;;;7.90;98.40;;;;;;5030849;28;20021;-80
2021/10/30 07:17:22;;;;;;;26.25;18.85;;;7.90;98.40;;;;;;5031834;28;20053;-80
2021/10/30 07:19:49;;;;;;;28.17;18.73;;;7.90;98.40;;;;;;5031115;28;20079;-79
2021/10/30 07:22:15;;;;;;;32.33;19.15;;;8.00;98.60;;;;;;5030665;28;20049;-80
2021/10/30 07:24:40;;;;;;;29.67;18.67;;;8.00;98.30;;;;;;5031868;28;20548;-79
2021/10/30 07:27:06;;;;;;;29.20;18.75;;;8.00;98.30;;;;;;5032040;28;20029;-79
2021/10/30 07:29:32;;;;;;;30.73;19.05;;;8.10;98.20;;;;;;5032135;28;20057;-80
2021/10/30 07:31:57;;;;;;;24.65;18.33;;;8.20;98.10;;;;;;5030005;28;20041;-79
2021/10/30 07:34:24;;;;;;;29.10;18.42;;;8.20;98.00;;;;;;5031628;28;20413;-81
2021/10/30 07:36:49;;;;;;;28.85;18.80;;;8.20;97.90;;;;;;5031603;28;20044;-81
2021/10/30 07:39:15;;;;;;;30.25;18.55;;;8.30;97.70;;;;;;5030726;28;20079;-80
2021/10/30 07:41:42;;;;;;;26.42;19.27;;;8.40;97.80;;;;;;5031196;28;20026;-81
2021/10/30 07:44:08;;;;;;;30.25;19.25;;;8.50;97.80;;;;;;5032070;28;20029;-80
2021/10/30 07:46:35;;;;;;;27.73;18.52;;;8.50;97.70;;;;;;5031311;28;20060;-82
2021/10/30 07:49:01;;;;;;;27.67;18.95;;;8.60;97.50;;;;;;5030699;28;20030;-79
2021/10/30 07:51:26;;;;;;;26.65;18.27;;;8.60;97.40;;;;;;5031117;28;20030;-81
2021/10/30 07:53:52;;;;;;;24.67;17.65;;;8.70;97.40;;;;;;5031547;28;20080;-80
2021/10/30 07:56:17;;;;;;;25.63;17.50;;;8.80;97.30;;;;;;5031281;28;20029;-80
2021/10/30 07:58:43;;;;;;;24.95;17.77;;;8.90;97.20;;;;;;5028927;28;20068;-80
2021/10/30 08:01:09;;;;;;;23.67;17.08;;;9.00;96.90;;;;;;5030246;28;20121;-80
2021/10/30 08:03:34;;;;;;;27.85;17.58;;;9.00;96.70;;;;;;5031983;28;20100;-80
2021/10/30 08:06:00;;;;;;;24.00;16.70;;;9.10;96.70;;;;;;5029685;28;20040;-80
2021/10/30 08:08:25;;;;;;;28.30;17.58;;;9.20;96.40;;;;;;5029199;28;20177;-80
2021/10/30 08:10:51;;;;;;;27.40;16.98;;;9.30;96.20;;;;;;5032705;28;20424;-81
2021/10/30 08:13:17;;;;;;;26.45;16.13;;;9.40;96.20;;;;;;5033078;28;20051;-80
2021/10/30 08:15:42;;;;;;;25.05;15.52;;;9.50;96.10;;;;;;5031950;28;20485;-81
2021/10/30 08:18:08;;;;;;;26.02;17.67;;;9.60;95.80;;;;;;5031189;28;20101;-80
2021/10/30 08:20:36;;;;;;;24.00;16.13;;;9.70;95.70;;;;;;5035758;28;20486;-80
2021/10/30 08:23:02;;;;;;;22.90;15.73;;;9.80;95.70;;;;;;5035568;28;20041;-80
2021/10/30 08:25:28;;;;;;;27.10;16.77;;;9.80;95.60;;;;;;5037091;28;20171;-81
2021/10/30 08:27:54;;;;;;;24.42;16.13;;;9.90;95.40;;;;;;5051055;28;20351;-81
2021/10/30 08:30:19;;;;;;;24.77;16.98;;;10.00;95.40;;;;;;5052804;28;20112;-80
2021/10/30 08:32:45;;;;;;;24.85;15.88;;;10.10;95.10;;;;;;5049815;28;20407;-81
2021/10/30 08:35:11;;;;;;;20.17;15.35;;;10.20;95.10;;;;;;5049077;28;20025;-81
2021/10/30 08:37:38;;;;;;;22.48;15.52;;;10.20;94.80;;;;;;5050218;28;20021;-81
2021/10/30 08:40:06;;;;;;;22.25;15.00;;;10.30;94.80;;;;;;5049977;28;20074;-81
2021/10/30 08:42:33;;;;;;;21.45;15.43;;;10.40;94.70;;;;;;5050044;28;20063;-81
2021/10/30 08:44:58;;;;;;;22.58;15.13;;;10.50;94.70;;;;;;5049026;28;20535;-81
2021/10/30 08:47:25;;;;;;;23.17;15.85;;;10.60;94.60;;;;;;5050111;28;20025;-81
2021/10/30 08:49:54;;;;;;;23.23;15.20;;;10.60;94.60;;;;;;5049487;28;20043;-81
2021/10/30 08:52:19;;;;;;;20.90;14.60;;;10.70;94.60;;;;;;5049311;28;20025;-81
2021/10/30 08:54:45;;;;;;;24.27;16.27;;;10.80;94.30;;;;;;5050080;28;20079;-80
2021/10/30 08:57:10;;;;;;;22.30;15.07;;;10.90;94.30;;;;;;5049566;28;20017;-80
2021/10/30 08:59:38;;;;;;;23.90;16.80;;;11.00;94.10;;;;;;5049621;28;20040;-80
2021/10/30 09:02:04;;;;;;;23.42;15.00;;;11.20;93.70;;;;;;5049145;28;20470;-80
2021/10/30 09:04:30;;;;;;;19.15;13.38;;;11.20;93.60;;;;;;5050001;28;20064;-81
2021/10/30 09:07:00;;;;;;;19.75;14.38;;;11.30;93.60;;;;;;5049661;28;20462;-81
2021/10/30 09:09:27;;;;;;;19.58;14.95;;;11.40;93.10;;;;;;5049059;28;20052;-80
2021/10/30 09:11:59;;;;;;;21.27;14.50;;;11.50;93.40;;;;;;5049464;28;20028;-80
2021/10/30 09:14:27;;;;;;;20.23;14.45;;;11.70;92.70;;;;;;5049560;28;20048;-80
2021/10/30 09:17:17;;;;;;;25.92;14.10;;;11.70;92.70;;;;;;5049573;28;20060;-81
2021/10/30 09:19:46;;;;;;;20.58;14.55;;;11.90;92.50;;;;;;5048931;28;20025;-80
2021/10/30 09:22:13;;;;;;;24.80;15.13;;;12.00;92.40;;;;;;5048208;28;20040;-82
2021/10/30 09:24:50;;;;;;;20.73;15.10;;;12.10;92.40;;;;;;5049850;28;20036;-81
2021/10/30 09:27:16;;;;;;;26.05;15.00;;;12.20;92.50;;;;;;5049548;28;20100;-81
2021/10/30 09:29:57;;;;;;;19.58;14.43;;;12.30;92.40;;;;;;5046948;28;20116;-80
2021/10/30 09:32:26;;;;;;;19.95;14.57;;;12.40;91.90;;;;;;5048968;28;20029;-80
2021/10/30 09:34:53;;;;;;;22.90;15.13;;;12.60;91.90;;;;;;5049809;28;20025;-81
2021/10/30 09:37:20;;;;;;;19.85;15.38;;;12.60;91.90;;;;;;5049506;28;20059;-81
2021/10/30 09:39:46;;;;;;;22.55;14.60;;;12.70;91.70;;;;;;5049251;28;20041;-80
2021/10/30 09:42:24;;;;;;;20.67;14.93;;;12.80;91.40;;;;;;5049150;28;20071;-81
2021/10/30 09:45:06;;;;;;;19.25;13.68;;;13.00;91.00;;;;;;5046980;28;20025;-81
2021/10/30 09:47:31;;;;;;;20.00;14.25;;;13.10;90.60;;;;;;5035444;28;20036;-81
2021/10/30 09:49:57;;;;;;;18.08;13.52;;;13.20;90.70;;;;;;5036010;28;20108;-81
2021/10/30 09:52:27;;;;;;;16.35;12.45;;;13.40;90.40;;;;;;5036031;28;20082;-81
2021/10/30 09:54:52;;;;;;;20.08;13.05;;;13.50;90.30;;;;;;5037554;28;20083;-80
2021/10/30 09:57:29;;;;;;;17.88;12.43;;;13.60;90.10;;;;;;5041375;28;20486;-80
2021/10/30 09:59:58;;;;;;;16.38;12.73;;;13.80;89.90;;;;;;5042257;28;20124;-81
2021/10/30 10:02:25;;;;;;;23.40;12.60;;;14.00;88.20;;;;;;5043437;28;20029;-79
2021/10/30 10:04:52;;;;;;;18.52;13.05;;;14.10;88.00;;;;;;5038219;28;20371;-80
2021/10/30 10:07:23;;;;;;;15.75;12.20;;;14.20;88.00;;;;;;5034680;28;20107;-79
2021/10/30 10:09:53;;;;;;;17.23;12.68;;;14.30;87.20;;;;;;5034050;28;20037;-80
2021/10/30 10:12:19;;;;;;;18.70;13.43;;;14.40;87.20;;;;;;5034466;28;20037;-82
2021/10/30 10:14:48;;;;;;;16.23;12.80;;;14.50;86.90;;;;;;5034711;28;20124;-81
2021/10/30 10:17:14;;;;;;;18.88;13.25;;;14.60;88.00;;;;;;5036031;28;20052;-80
2021/10/30 10:19:41;;;;;;;14.55;11.10;;;14.80;86.90;;;;;;5035140;28;20033;-80
2021/10/30 10:22:08;;;;;;;17.45;12.93;;;14.90;85.80;;;;;;5035472;28;20033;-81
2021/10/30 10:24:38;;;;;;;16.52;11.63;;;15.00;84.50;;;;;;5035989;28;20051;-80
2021/10/30 10:27:08;;;;;;;20.02;12.90;;;15.10;83.20;;;;;;5038476;28;20025;-80
2021/10/30 10:29:33;;;;;;;15.93;11.18;;;15.20;82.80;;;;;;5035777;28;20033;-80
2021/10/30 10:32:02;;;;;;;16.38;12.63;;;15.20;83.00;;;;;;5035346;28;20112;-82
2021/10/30 10:34:36;;;;;;;15.30;11.25;;;15.30;83.10;;;;;;5035926;28;20030;-81
2021/10/30 10:37:10;;;;;;;16.65;12.05;;;15.40;83.40;;;;;;5051518;28;20039;-81
2021/10/30 10:39:40;;;;;;;18.15;12.27;;;15.60;82.40;;;;;;5035418;28;20043;-80
2021/10/30 10:42:10;;;;;;;15.50;11.93;;;15.60;82.70;;;;;;5036450;28;20026;-79
2021/10/30 10:44:42;;;;;;;15.13;11.60;;;15.70;83.10;;;;;;5036114;28;20037;-79
2021/10/30 10:47:35;;;;;;;17.83;11.77;;;15.80;82.90;;;;;;5037297;28;20025;-81
2021/10/30 10:50:30;;;;;;;14.95;11.90;;;15.80;83.20;;;;;;5036360;28;20040;-81
2021/10/30 10:52:59;;;;;;;13.43;10.57;;;15.90;82.50;;;;;;5035083;28;20072;-80
2021/10/30 10:55:25;;;;;;;16.60;11.95;;;15.90;82.80;;;;;;5035887;28;20109;-81
2021/10/30 10:57:57;;;;;;;17.50;12.40;;;16.00;82.40;;;;;;5031033;28;20025;-79
2021/10/30 11:00:24;;;;;;;14.50;11.73;;;16.00;82.20;;;;;;5032542;28;20131;-80
2021/10/30 11:02:49;;;;;;;17.02;11.93;;;16.10;82.10;;;;;;5032316;28;20083;-80
2021/10/30 11:05:17;;;;;;;15.95;11.55;;;16.20;82.20;;;;;;5032456;28;20389;-81
2021/10/30 11:07:58;;;;;;;14.55;10.85;;;16.30;82.10;;;;;;5032427;28;20033;-80
2021/10/30 11:11:09;;;;;;;14.63;10.77;;;16.30;81.50;;;;;;5033158;28;20030;-80
2021/10/30 11:13:35;;;;;;;16.25;11.05;;;16.30;81.30;;;;;;5026796;28;20049;-80
2021/10/30 11:16:02;;;;;;;17.05;11.60;;;16.30;81.50;;;;;;5032403;28;20097;-82
2021/10/30 11:21:23;;;;;;;15.93;11.88;;;16.40;80.90;;;;;;5032049;28;20502;-81
2021/10/30 11:23:50;;;;;;;;;;;16.50;80.80;;;;;;5032471;28;20032;-80
2021/10/30 11:26:28;;;;;;;15.82;11.30;;;16.60;80.80;;;;;;5032036;28;19905;-81
2021/10/30 11:29:08;;;;;;;15.50;10.95;;;16.60;81.50;;;;;;5030859;28;20032;-81
2021/10/30 11:31:34;;;;;;;16.83;12.63;;;16.70;80.40;;;;;;5031386;28;20033;-80
2021/10/30 11:34:08;;;;;;;14.93;10.30;;;16.80;80.20;;;;;;5031265;28;20528;-80
2021/10/30 11:36:37;;;;;;;14.23;11.10;;;16.90;80.10;;;;;;5031877;28;20034;-81
2021/10/30 11:39:08;;;;;;;14.48;10.15;;;16.90;79.70;;;;;;5029660;28;20124;-80
2021/10/30 11:41:37;;;;;;;15.85;10.57;;;17.00;78.60;;;;;;5031589;28;20048;-80
2021/10/30 11:44:05;;;;;;;14.77;10.10;;;17.10;78.40;;;;;;5031685;28;20025;-81
2021/10/30 11:46:32;;;;;;;14.18;10.65;;;17.10;79.50;;;;;;5031882;28;20033;-81
2021/10/30 11:48:59;;;;;;;14.73;10.65;;;17.10;79.00;;;;;;5032362;28;20029;-81
2021/10/30 11:51:31;;;;;;;12.88;9.32;;;17.20;78.30;;;;;;5030549;28;20034;-81
2021/10/30 11:53:58;;;;;;;14.38;10.00;;;17.30;79.30;;;;;;5031473;28;20032;-80
2021/10/30 11:56:26;;;;;;;13.55;10.50;;;17.40;78.50;;;;;;5033036;28;20093;-80
2021/10/30 11:58:54;;;;;;;13.18;10.13;;;17.40;77.20;;;;;;5037937;28;20022;-80
2021/10/30 12:01:28;;;;;;;13.60;10.77;;;17.50;77.30;;;;;;5039423;28;20092;-80
2021/10/30 12:04:24;;;;;;;14.50;10.98;;;17.60;76.90;;;;;;5034209;28;20030;-81
2021/10/30 12:06:56;;;;;;;13.63;11.00;;;17.60;76.50;;;;;;5031663;28;20075;-81
2021/10/30 12:09:34;;;;;;;18.75;9.85;;;17.60;75.40;;;;;;5029738;28;20034;-81
2021/10/30 12:12:03;;;;;;;12.45;10.23;;;17.50;75.70;;;;;;5029290;28;20060;-82
2021/10/30 12:14:33;;;;;;;10.90;8.80;;;17.50;75.80;;;;;;5030582;28;20691;-82
2021/10/30 12:17:01;;;;;;;12.73;9.77;;;17.50;77.50;;;;;;5031151;28;20029;-83
2021/10/30 12:19:30;;;;;;;12.38;9.68;;;17.50;76.20;;;;;;5030000;28;20390;-81
2021/10/30 12:22:19;;;;;;;12.35;9.50;;;17.60;74.60;;;;;;5029659;28;20045;-83
2021/10/30 12:24:45;;;;;;;13.40;9.00;;;17.70;73.40;;;;;;5029322;28;20033;-82
2021/10/30 12:27:11;;;;;;;11.85;9.82;;;17.80;74.10;;;;;;5032390;28;20033;-82
2021/10/30 12:29:41;;;;;;;13.07;9.65;;;17.80;74.20;;;;;;5030017;28;20056;-82
2021/10/30 12:32:15;;;;;;;13.48;9.63;;;17.90;73.90;;;;;;5029271;28;20022;-82
2021/10/30 12:34:42;;;;;;;12.02;9.35;;;18.00;74.10;;;;;;5033909;28;20025;-82
2021/10/30 12:37:11;;;;;;;13.18;9.38;;;18.10;74.60;;;;;;5050543;28;20021;-80